Time;durP1;ratioP1;P1;durP2;ratioP2;P2;SDS_P1;SDS_P2;PMS_P1;PMS_P2;Temp;Humidity;BMP_temperature;BMP_pressure;BME280_temperature;BME280_humidity;BME280_pressure;Samples;Min_cycle;Max_cycle;Signal;HPM_P1;HPM_P2
2022/06/01 05:39:42;;;;;;;10.28;5.80;;;;;;;20.29;93.31;100211.71;1776621;79;21062;-47
2022/06/01 05:42:08;;;;;;;8.30;5.97;;;;;;;20.43;91.62;100217.80;1780607;80;21007;-47
2022/06/01 05:44:37;;;;;;;13.75;5.75;;;;;;;20.51;91.76;100211.72;1783015;79;21038;-41
2022/06/01 05:47:04;;;;;;;7.10;5.25;;;;;;;20.62;91.39;100216.12;1714026;83;20942;-41
2022/06/01 05:49:31;;;;;;;6.92;5.62;;;;;;;20.71;90.07;100217.07;1751252;81;21025;-41
2022/06/01 05:51:58;;;;;;;6.78;5.40;;;;;;;20.80;89.60;100217.59;1716280;82;21348;-41
2022/06/01 05:54:25;;;;;;;7.37;5.55;;;;;;;20.90;88.89;100218.92;1727759;81;21480;-48
2022/06/01 05:56:51;;;;;;;10.25;5.12;;;;;;;21.00;87.88;100210.95;1724913;82;20996;-48
2022/06/01 05:59:18;;;;;;;10.40;6.55;;;;;;;21.07;88.00;100215.53;1741666;80;21062;-48
2022/06/01 06:01:45;;;;;;;9.63;4.78;;;;;;;21.13;87.92;100208.59;1758109;79;21068;-48
2022/06/01 06:04:12;;;;;;;10.20;5.42;;;;;;;21.18;87.18;100214.11;1735128;80;21144;-41
2022/06/01 06:06:38;;;;;;;6.55;4.78;;;;;;;21.26;86.56;100211.95;1772336;79;21485;-41
2022/06/01 06:09:08;;;;;;;10.00;5.22;;;;;;;21.33;86.75;100212.57;1787736;79;21671;-41
2022/06/01 06:11:37;;;;;;;8.50;5.15;;;;;;;21.37;85.36;100206.66;1773412;80;21065;-41
2022/06/01 06:14:04;;;;;;;9.58;5.53;;;;;;;21.42;85.42;100205.98;1776518;80;21052;-48
2022/06/01 06:16:35;;;;;;;10.58;5.47;;;;;;;21.48;85.37;100203.03;1784199;80;20990;-41
2022/06/01 06:19:03;;;;;;;6.65;5.40;;;;;;;21.56;84.57;100196.87;1723424;82;21076;-41
2022/06/01 06:21:31;;;;;;;8.98;5.87;;;;;;;21.64;84.38;100198.73;1722842;83;20985;-41
2022/06/01 06:24:11;;;;;;;10.03;5.72;;;;;;;21.71;85.32;100197.49;1747127;81;21104;-48
2022/06/01 06:26:40;;;;;;;6.95;4.95;;;;;;;21.79;83.73;100201.11;1773836;79;21044;-41
2022/06/01 06:29:08;;;;;;;8.03;5.35;;;;;;;21.87;83.48;100204.77;1781826;78;21474;-48
2022/06/01 06:31:36;;;;;;;12.33;5.70;;;;;;;21.96;82.98;100205.16;1781724;79;21519;-48
2022/06/01 06:34:03;;;;;;;10.45;5.42;;;;;;;22.03;82.62;100199.06;1778418;80;21064;-41
2022/06/01 06:36:29;;;;;;;12.80;6.35;;;;;;;22.07;82.28;100197.98;1778957;79;21067;-48
2022/06/01 06:38:56;;;;;;;7.95;5.03;;;;;;;22.14;81.22;100196.77;1781707;80;21060;-47
2022/06/01 06:41:23;;;;;;;5.65;4.97;;;;;;;22.17;81.56;100188.64;1780247;78;21091;-41
2022/06/01 06:43:51;;;;;;;8.40;5.05;;;;;;;22.28;81.45;100190.30;1783904;80;21549;-40
2022/06/01 06:46:20;;;;;;;8.80;5.60;;;;;;;22.39;80.29;100188.91;1778964;79;21048;-42
2022/06/01 06:48:50;;;;;;;9.90;4.67;;;;;;;22.51;80.91;100186.95;1788645;79;21702;-41
2022/06/01 06:51:18;;;;;;;8.48;5.53;;;;;;;22.65;79.81;100184.90;1780651;78;21013;-47
2022/06/01 06:53:44;;;;;;;9.70;5.00;;;;;;;22.75;80.46;100186.16;1780142;78;21524;-47
2022/06/01 06:56:13;;;;;;;8.08;5.35;;;;;;;22.86;80.38;100187.80;1782381;78;20997;-40
2022/06/01 06:58:41;;;;;;;12.55;5.58;;;;;;;22.93;78.08;100182.55;1781696;78;21048;-41
2022/06/01 07:01:07;;;;;;;6.83;5.53;;;;;;;22.99;78.10;100189.37;1778379;79;20994;-41
2022/06/01 07:03:35;;;;;;;9.25;5.70;;;;;;;23.04;77.86;100188.66;1780118;78;21587;-47
2022/06/01 07:06:13;;;;;;;11.88;5.75;;;;;;;23.11;77.69;100192.72;1773540;80;20985;-41
2022/06/01 07:08:49;;;;;;;7.28;4.85;;;;;;;23.17;77.10;100194.20;1777653;78;21104;-41
2022/06/01 07:11:17;;;;;;;9.18;5.80;;;;;;;23.21;77.35;100185.95;1777338;78;20949;-47
2022/06/01 07:13:46;;;;;;;7.28;5.08;;;;;;;23.29;76.19;100183.72;1792768;79;21068;-40
2022/06/01 07:16:15;;;;;;;8.43;5.42;;;;;;;23.36;76.11;100184.23;1790007;78;20973;-47
2022/06/01 07:18:44;;;;;;;13.98;5.60;;;;;;;23.42;76.53;100175.89;1785887;78;21408;-42
2022/06/01 07:21:12;;;;;;;9.05;4.85;;;;;;;23.53;76.13;100180.17;1785778;78;20953;-40
2022/06/01 07:23:39;;;;;;;10.78;5.03;;;;;;;23.60;72.82;100174.05;1772926;80;21090;-40
2022/06/01 07:26:10;;;;;;;8.15;5.20;;;;;;;23.67;73.11;100178.12;1773163;80;21025;-42
2022/06/01 07:28:37;;;;;;;10.80;4.50;;;;;;;23.72;72.84;100167.19;1770868;80;21048;-48
2022/06/01 07:31:04;;;;;;;6.37;4.50;;;;;;;23.83;72.79;100176.31;1779254;79;21021;-47
2022/06/01 07:33:31;;;;;;;9.48;4.22;;;;;;;23.93;71.63;100171.29;1778901;79;21643;-48
2022/06/01 07:35:58;;;;;;;8.88;4.20;;;;;;;24.04;70.36;100166.19;1777051;78;21083;-48
2022/06/01 07:44:23;;;;;;;6.85;4.03;;;;;;;24.24;68.56;100164.19;1770686;80;21043;-46
2022/06/01 07:46:50;;;;;;;8.30;3.80;;;;;;;24.36;67.32;100160.35;1780926;79;20981;-47
2022/06/01 07:49:17;;;;;;;6.30;3.50;;;;;;;24.48;66.49;100153.89;1773737;80;21021;-48
2022/06/01 07:51:43;;;;;;;12.23;4.20;;;;;;;24.60;65.43;100158.02;1736206;80;21061;-40
2022/06/01 07:54:10;;;;;;;9.35;4.05;;;;;;;24.65;65.37;100149.72;1717428;81;21042;-40
2022/06/01 07:56:36;;;;;;;6.90;4.40;;;;;;;24.69;66.12;100153.44;1769739;79;21461;-48
2022/06/01 07:59:05;;;;;;;8.40;3.90;;;;;;;24.86;64.75;100145.72;1784752;78;21522;-47
2022/06/01 08:01:33;;;;;;;6.35;4.03;;;;;;;24.86;64.75;100145.72;1777052;79;20977;-40
2022/06/01 08:04:04;;;;;;;9.50;4.25;;;;;;;24.87;64.10;100145.23;1773994;79;21087;-42
2022/06/01 08:06:32;;;;;;;8.50;3.83;;;;;;;25.02;62.96;100138.09;1782611;78;20962;-46
2022/06/01 08:08:59;;;;;;;7.95;4.00;;;;;;;25.02;62.96;100138.09;1778948;79;21060;-47
2022/06/01 08:14:11;;;;;;;9.50;4.10;;;;;;;25.24;61.27;100145.20;1771881;80;21068;-41
2022/06/01 08:16:38;;;;;;;9.88;3.67;;;;;;;25.27;61.53;100142.30;1761164;80;21516;-48
2022/06/01 08:19:08;;;;;;;6.17;3.47;;;;;;;25.29;59.45;100146.25;1775592;79;21378;-47
2022/06/01 08:21:36;;;;;;;9.10;3.65;;;;;;;25.32;60.39;100142.88;1780853;79;21547;-48
2022/06/01 08:24:04;;;;;;;5.10;4.25;;;;;;;25.34;61.33;100138.30;1761590;80;21048;-41
2022/06/01 08:26:31;;;;;;;6.37;4.12;;;;;;;25.40;62.05;100135.23;1761543;80;21020;-41
2022/06/01 08:28:58;;;;;;;7.28;4.05;;;;;;;25.50;61.69;100139.50;1738214;82;21112;-40
2022/06/01 08:31:29;;;;;;;10.93;3.80;;;;;;;25.62;60.76;100130.67;1743243;79;20997;-41
2022/06/01 08:33:57;;;;;;;7.87;3.72;;;;;;;25.68;59.52;100140.12;1723181;81;21062;-46
2022/06/01 08:36:24;;;;;;;8.23;4.47;;;;;;;25.69;60.07;100131.16;1748073;80;21036;-47
2022/06/01 08:38:52;;;;;;;12.10;4.37;;;;;;;25.76;61.15;100123.13;1784959;80;21017;-42
2022/06/01 08:41:21;;;;;;;7.05;3.83;;;;;;;25.83;59.38;100125.77;1771269;80;21932;-48
2022/06/01 08:43:52;;;;;;;8.98;3.90;;;;;;;25.84;58.62;100119.45;1778091;79;21542;-48
2022/06/01 08:46:19;;;;;;;4.97;3.77;;;;;;;25.86;59.42;100113.98;1758165;80;21056;-48
2022/06/01 08:49:12;;;;;;;5.85;3.77;;;;;;;25.93;59.14;100116.66;1766704;79;21022;-47
2022/06/01 08:51:38;;;;;;;7.42;3.72;;;;;;;25.97;59.30;100112.30;1774939;80;21015;-48
2022/06/01 08:54:05;;;;;;;6.45;3.65;;;;;;;26.05;58.52;100109.62;1771609;80;21101;-47
2022/06/01 08:56:46;;;;;;;7.50;3.70;;;;;;;26.11;58.17;100111.40;1775147;79;21005;-48
2022/06/01 08:59:28;;;;;;;6.70;4.15;;;;;;;26.21;58.96;100111.65;1785539;79;21017;-47
2022/06/01 09:02:05;;;;;;;9.33;3.60;;;;;;;26.30;58.30;100107.47;1768301;79;20959;-48
2022/06/01 09:04:45;;;;;;;9.63;4.20;;;;;;;26.32;56.97;100109.06;1762196;79;21034;-47
2022/06/01 09:07:31;;;;;;;5.92;3.45;;;;;;;26.34;58.30;100111.66;1751459;80;21046;-47
2022/06/01 09:10:26;;;;;;;8.40;3.50;;;;;;;26.44;56.88;100111.42;1772879;80;21028;-47
2022/06/01 09:13:10;;;;;;;10.82;4.03;;;;;;;26.51;56.78;100113.59;1785062;79;21050;-47
2022/06/01 09:15:51;;;;;;;8.65;3.35;;;;;;;26.53;56.58;100117.51;1775606;80;21022;-46
2022/06/01 09:18:20;;;;;;;7.37;3.12;;;;;;;26.57;55.74;100111.46;1759147;80;21571;-40
2022/06/01 09:23:32;;;;;;;13.88;3.87;;;;;;;26.63;52.69;100107.86;1744383;81;21059;-41
2022/06/01 09:25:58;;;;;;;7.30;3.98;;;;;;;26.71;51.85;100114.03;1730202;81;21047;-40
2022/06/01 09:28:27;;;;;;;5.85;3.75;;;;;;;26.68;52.20;100108.89;1731970;80;21020;-47
2022/06/01 09:31:02;;;;;;;5.42;3.87;;;;;;;26.71;52.67;100113.54;1744009;81;21456;-47
2022/06/01 09:33:33;;;;;;;6.00;3.30;;;;;;;26.78;53.38;100109.94;1721634;82;21053;-41
2022/06/01 09:36:10;;;;;;;8.50;3.95;;;;;;;26.84;54.74;100106.83;1759755;79;21037;-47
2022/06/01 09:38:54;;;;;;;11.12;4.33;;;;;;;26.94;53.29;100109.73;1768359;80;21054;-41
2022/06/01 09:41:31;;;;;;;6.60;3.70;;;;;;;26.97;51.83;100103.67;1777273;80;21041;-41
2022/06/01 09:44:01;;;;;;;10.45;3.58;;;;;;;26.97;51.53;100105.02;1781701;80;21073;-40
2022/06/01 09:46:37;;;;;;;6.78;3.22;;;;;;;26.99;52.38;100103.06;1770581;80;21041;-48
2022/06/01 09:49:25;;;;;;;7.33;4.03;;;;;;;27.09;51.28;100107.34;1744957;81;21013;-47
2022/06/01 09:52:00;;;;;;;5.78;3.27;;;;;;;27.16;52.06;100105.06;1781721;79;21394;-41
2022/06/01 09:54:33;;;;;;;8.53;3.45;;;;;;;27.19;51.46;100104.83;1756626;81;21103;-41
2022/06/01 09:57:28;;;;;;;4.15;3.25;;;;;;;27.25;52.98;100105.73;1784597;79;21383;-47
2022/06/01 10:08:23;;;;;;;4.00;3.33;;;;;;;27.37;51.15;100101.30;1772670;78;21024;-47
2022/06/01 10:11:05;;;;;;;7.15;3.47;;;;;;;27.39;50.50;100094.00;1797875;79;21005;-47
2022/06/01 10:13:41;;;;;;;13.15;3.47;;;;;;;27.35;50.76;100096.04;1720102;81;21550;-47
2022/06/01 10:16:24;;;;;;;4.92;3.25;;;;;;;27.36;50.98;100090.18;1755014;80;23313;-48
2022/06/01 10:18:51;;;;;;;5.53;3.50;;;;;;;27.37;50.71;100090.55;1788334;78;21126;-49
2022/06/01 10:21:24;;;;;;;8.48;3.60;;;;;;;27.37;50.10;100092.78;1780496;79;21041;-42
2022/06/01 10:24:03;;;;;;;7.40;4.00;;;;;;;27.38;49.49;100095.83;1781219;78;21527;-42
